sensor_id;sensor_type;location;lat;lon;timestamp;P1;durP1;ratioP1;P2;durP2;ratioP2
27622;SDS011;15041;45.334;5.622;2023-09-19T00:00:16;7.38;;;2.25;;
27622;SDS011;15041;45.334;5.622;2023-09-19T00:02:46;2.30;;;2.10;;
27622;SDS011;15041;45.334;5.622;2023-09-19T00:05:18;3.25;;;2.55;;
27622;SDS011;15041;45.334;5.622;2023-09-19T00:07:49;4.25;;;2.13;;
27622;SDS011;15041;45.334;5.622;2023-09-19T00:10:19;2.75;;;2.28;;
27622;SDS011;15041;45.334;5.622;2023-09-19T00:12:48;3.45;;;2.08;;
27622;SDS011;15041;45.334;5.622;2023-09-19T00:15:17;6.90;;;2.45;;
27622;SDS011;15041;45.334;5.622;2023-09-19T00:17:44;3.63;;;2.35;;
27622;SDS011;15041;45.334;5.622;2023-09-19T00:20:13;3.35;;;2.15;;
27622;SDS011;15041;45.334;5.622;2023-09-19T00:22:43;4.60;;;2.20;;
27622;SDS011;15041;45.334;5.622;2023-09-19T00:25:10;6.47;;;2.65;;
27622;SDS011;15041;45.334;5.622;2023-09-19T00:27:40;5.05;;;2.85;;
27622;SDS011;15041;45.334;5.622;2023-09-19T00:30:12;2.60;;;2.15;;
27622;SDS011;15041;45.334;5.622;2023-09-19T00:33:07;2.67;;;2.25;;
27622;SDS011;15041;45.334;5.622;2023-09-19T00:35:36;5.88;;;2.50;;
27622;SDS011;15041;45.334;5.622;2023-09-19T00:38:04;3.13;;;2.20;;
27622;SDS011;15041;45.334;5.622;2023-09-19T00:40:32;5.72;;;2.45;;
27622;SDS011;15041;45.334;5.622;2023-09-19T00:43:00;6.43;;;2.33;;
27622;SDS011;15041;45.334;5.622;2023-09-19T00:45:29;8.55;;;2.97;;
27622;SDS011;15041;45.334;5.622;2023-09-19T00:47:56;7.30;;;1.70;;
27622;SDS011;15041;45.334;5.622;2023-09-19T00:50:24;6.10;;;2.28;;
27622;SDS011;15041;45.334;5.622;2023-09-19T00:52:55;2.90;;;2.38;;
27622;SDS011;15041;45.334;5.622;2023-09-19T00:55:22;5.90;;;2.40;;
27622;SDS011;15041;45.334;5.622;2023-09-19T00:57:51;11.57;;;2.67;;
27622;SDS011;15041;45.334;5.622;2023-09-19T01:00:19;4.95;;;1.98;;
27622;SDS011;15041;45.334;5.622;2023-09-19T01:02:48;5.13;;;2.13;;
27622;SDS011;15041;45.334;5.622;2023-09-19T01:05:15;6.03;;;2.00;;
27622;SDS011;15041;45.334;5.622;2023-09-19T01:07:44;4.05;;;2.15;;
27622;SDS011;15041;45.334;5.622;2023-09-19T01:10:15;7.20;;;2.42;;
27622;SDS011;15041;45.334;5.622;2023-09-19T01:12:48;7.80;;;2.58;;
27622;SDS011;15041;45.334;5.622;2023-09-19T01:15:22;6.85;;;2.35;;
27622;SDS011;15041;45.334;5.622;2023-09-19T01:18:02;10.13;;;2.72;;
27622;SDS011;15041;45.334;5.622;2023-09-19T01:20:39;4.82;;;2.28;;
27622;SDS011;15041;45.334;5.622;2023-09-19T01:23:15;4.72;;;2.15;;
27622;SDS011;15041;45.334;5.622;2023-09-19T01:26:06;4.45;;;2.00;;
27622;SDS011;15041;45.334;5.622;2023-09-19T01:28:48;3.08;;;2.05;;
27622;SDS011;15041;45.334;5.622;2023-09-19T01:31:24;2.75;;;1.90;;
27622;SDS011;15041;45.334;5.622;2023-09-19T01:33:59;2.47;;;1.95;;
27622;SDS011;15041;45.334;5.622;2023-09-19T01:36:30;3.80;;;2.10;;
27622;SDS011;15041;45.334;5.622;2023-09-19T01:39:00;3.97;;;2.22;;
27622;SDS011;15041;45.334;5.622;2023-09-19T01:41:39;3.63;;;1.95;;
27622;SDS011;15041;45.334;5.622;2023-09-19T01:44:17;8.57;;;2.45;;
27622;SDS011;15041;45.334;5.622;2023-09-19T01:46:52;7.50;;;2.30;;
27622;SDS011;15041;45.334;5.622;2023-09-19T01:49:27;7.20;;;2.55;;
27622;SDS011;15041;45.334;5.622;2023-09-19T01:52:04;5.13;;;2.50;;
27622;SDS011;15041;45.334;5.622;2023-09-19T01:54:40;12.85;;;2.67;;
27622;SDS011;15041;45.334;5.622;2023-09-19T01:57:15;2.60;;;2.15;;
27622;SDS011;15041;45.334;5.622;2023-09-19T01:59:45;7.07;;;2.67;;
27622;SDS011;15041;45.334;5.622;2023-09-19T02:02:19;6.53;;;2.85;;
27622;SDS011;15041;45.334;5.622;2023-09-19T02:04:48;6.43;;;2.80;;
27622;SDS011;15041;45.334;5.622;2023-09-19T02:07:16;5.30;;;2.70;;
27622;SDS011;15041;45.334;5.622;2023-09-19T02:09:44;6.82;;;2.53;;
27622;SDS011;15041;45.334;5.622;2023-09-19T02:12:13;6.72;;;2.25;;
27622;SDS011;15041;45.334;5.622;2023-09-19T02:14:40;10.73;;;3.10;;
27622;SDS011;15041;45.334;5.622;2023-09-19T02:17:08;5.05;;;2.65;;
27622;SDS011;15041;45.334;5.622;2023-09-19T02:19:38;7.63;;;3.15;;
27622;SDS011;15041;45.334;5.622;2023-09-19T02:22:06;9.68;;;3.00;;
27622;SDS011;15041;45.334;5.622;2023-09-19T02:24:36;6.22;;;2.45;;
27622;SDS011;15041;45.334;5.622;2023-09-19T02:27:04;7.32;;;2.72;;
27622;SDS011;15041;45.334;5.622;2023-09-19T02:29:32;6.82;;;2.60;;
27622;SDS011;15041;45.334;5.622;2023-09-19T02:32:00;2.53;;;2.33;;
27622;SDS011;15041;45.334;5.622;2023-09-19T02:34:28;6.00;;;2.40;;
27622;SDS011;15041;45.334;5.622;2023-09-19T02:36:57;9.40;;;3.25;;
27622;SDS011;15041;45.334;5.622;2023-09-19T02:39:24;4.15;;;3.20;;
27622;SDS011;15041;45.334;5.622;2023-09-19T02:41:51;6.85;;;2.83;;
27622;SDS011;15041;45.334;5.622;2023-09-19T02:44:18;4.50;;;3.13;;
27622;SDS011;15041;45.334;5.622;2023-09-19T02:46:45;2.83;;;2.63;;
27622;SDS011;15041;45.334;5.622;2023-09-19T02:49:13;4.50;;;2.55;;
27622;SDS011;15041;45.334;5.622;2023-09-19T02:51:42;6.50;;;3.03;;
27622;SDS011;15041;45.334;5.622;2023-09-19T02:54:10;7.72;;;2.83;;
27622;SDS011;15041;45.334;5.622;2023-09-19T02:56:38;5.45;;;2.50;;
27622;SDS011;15041;45.334;5.622;2023-09-19T02:59:05;5.43;;;2.10;;
27622;SDS011;15041;45.334;5.622;2023-09-19T03:01:35;12.77;;;2.50;;
27622;SDS011;15041;45.334;5.622;2023-09-19T03:04:04;4.20;;;2.42;;
27622;SDS011;15041;45.334;5.622;2023-09-19T03:06:36;4.03;;;2.42;;
27622;SDS011;15041;45.334;5.622;2023-09-19T03:09:05;5.68;;;2.50;;
27622;SDS011;15041;45.334;5.622;2023-09-19T03:11:39;5.47;;;2.35;;
27622;SDS011;15041;45.334;5.622;2023-09-19T03:14:07;2.45;;;2.25;;
27622;SDS011;15041;45.334;5.622;2023-09-19T03:16:36;6.03;;;2.58;;
27622;SDS011;15041;45.334;5.622;2023-09-19T03:19:04;3.05;;;2.03;;
27622;SDS011;15041;45.334;5.622;2023-09-19T03:21:31;20.38;;;2.38;;
27622;SDS011;15041;45.334;5.622;2023-09-19T03:24:00;3.40;;;2.28;;
27622;SDS011;15041;45.334;5.622;2023-09-19T03:26:27;4.30;;;2.17;;
27622;SDS011;15041;45.334;5.622;2023-09-19T03:28:56;4.40;;;2.28;;
27622;SDS011;15041;45.334;5.622;2023-09-19T03:31:23;2.83;;;2.38;;
27622;SDS011;15041;45.334;5.622;2023-09-19T03:33:51;11.93;;;3.08;;
27622;SDS011;15041;45.334;5.622;2023-09-19T03:36:18;11.65;;;2.60;;
27622;SDS011;15041;45.334;5.622;2023-09-19T03:38:45;7.82;;;2.95;;
27622;SDS011;15041;45.334;5.622;2023-09-19T03:41:12;2.60;;;2.40;;
27622;SDS011;15041;45.334;5.622;2023-09-19T03:43:42;3.83;;;2.63;;
27622;SDS011;15041;45.334;5.622;2023-09-19T03:46:11;5.50;;;2.50;;
27622;SDS011;15041;45.334;5.622;2023-09-19T03:48:41;9.98;;;2.42;;
27622;SDS011;15041;45.334;5.622;2023-09-19T03:51:09;2.90;;;2.40;;
27622;SDS011;15041;45.334;5.622;2023-09-19T03:53:37;2.95;;;2.10;;
27622;SDS011;15041;45.334;5.622;2023-09-19T03:56:04;7.45;;;2.60;;
27622;SDS011;15041;45.334;5.622;2023-09-19T03:58:32;4.47;;;2.60;;
27622;SDS011;15041;45.334;5.622;2023-09-19T04:01:03;7.25;;;2.30;;
27622;SDS011;15041;45.334;5.622;2023-09-19T04:03:33;3.97;;;2.70;;
27622;SDS011;15041;45.334;5.622;2023-09-19T04:06:11;4.70;;;2.35;;
27622;SDS011;15041;45.334;5.622;2023-09-19T04:08:39;6.60;;;2.33;;
27622;SDS011;15041;45.334;5.622;2023-09-19T04:11:06;3.72;;;1.90;;
27622;SDS011;15041;45.334;5.622;2023-09-19T04:13:34;9.40;;;2.70;;
27622;SDS011;15041;45.334;5.622;2023-09-19T04:16:01;3.85;;;2.45;;
27622;SDS011;15041;45.334;5.622;2023-09-19T04:18:29;9.88;;;2.35;;
27622;SDS011;15041;45.334;5.622;2023-09-19T04:21:01;8.68;;;2.92;;
27622;SDS011;15041;45.334;5.622;2023-09-19T04:23:29;6.53;;;2.10;;
27622;SDS011;15041;45.334;5.622;2023-09-19T04:25:56;9.02;;;3.20;;
27622;SDS011;15041;45.334;5.622;2023-09-19T04:28:24;8.48;;;2.92;;
27622;SDS011;15041;45.334;5.622;2023-09-19T04:30:53;3.47;;;2.80;;
27622;SDS011;15041;45.334;5.622;2023-09-19T04:33:20;8.48;;;3.17;;
27622;SDS011;15041;45.334;5.622;2023-09-19T04:35:48;5.05;;;2.80;;
27622;SDS011;15041;45.334;5.622;2023-09-19T04:38:19;9.35;;;3.33;;
27622;SDS011;15041;45.334;5.622;2023-09-19T04:40:47;4.88;;;3.10;;
27622;SDS011;15041;45.334;5.622;2023-09-19T04:43:14;9.55;;;3.60;;
27622;SDS011;15041;45.334;5.622;2023-09-19T04:45:42;8.15;;;2.70;;
27622;SDS011;15041;45.334;5.622;2023-09-19T04:48:09;7.25;;;3.00;;
27622;SDS011;15041;45.334;5.622;2023-09-19T04:50:37;6.97;;;3.45;;
27622;SDS011;15041;45.334;5.622;2023-09-19T04:53:04;9.52;;;3.35;;
27622;SDS011;15041;45.334;5.622;2023-09-19T04:55:33;8.30;;;3.40;;
27622;SDS011;15041;45.334;5.622;2023-09-19T04:58:01;6.22;;;3.75;;
27622;SDS011;15041;45.334;5.622;2023-09-19T05:00:29;5.72;;;3.53;;
27622;SDS011;15041;45.334;5.622;2023-09-19T05:03:00;4.20;;;3.40;;
27622;SDS011;15041;45.334;5.622;2023-09-19T05:05:29;7.25;;;2.97;;
27622;SDS011;15041;45.334;5.622;2023-09-19T05:07:56;6.90;;;3.60;;
27622;SDS011;15041;45.334;5.622;2023-09-19T05:10:24;7.57;;;3.63;;
27622;SDS011;15041;45.334;5.622;2023-09-19T05:12:54;6.25;;;3.53;;
27622;SDS011;15041;45.334;5.622;2023-09-19T05:15:21;7.35;;;4.15;;
27622;SDS011;15041;45.334;5.622;2023-09-19T05:17:48;3.58;;;3.28;;
27622;SDS011;15041;45.334;5.622;2023-09-19T05:20:16;7.20;;;3.67;;
27622;SDS011;15041;45.334;5.622;2023-09-19T05:22:50;8.57;;;4.07;;
27622;SDS011;15041;45.334;5.622;2023-09-19T05:25:23;5.90;;;3.38;;
27622;SDS011;15041;45.334;5.622;2023-09-19T05:27:54;10.00;;;3.85;;
27622;SDS011;15041;45.334;5.622;2023-09-19T05:30:21;6.30;;;3.97;;
27622;SDS011;15041;45.334;5.622;2023-09-19T05:32:48;9.00;;;3.80;;
27622;SDS011;15041;45.334;5.622;2023-09-19T05:35:16;6.70;;;3.80;;
27622;SDS011;15041;45.334;5.622;2023-09-19T05:37:43;17.83;;;4.47;;
27622;SDS011;15041;45.334;5.622;2023-09-19T05:40:11;17.42;;;4.45;;
27622;SDS011;15041;45.334;5.622;2023-09-19T05:42:41;14.95;;;4.88;;
27622;SDS011;15041;45.334;5.622;2023-09-19T05:45:11;6.97;;;3.92;;
27622;SDS011;15041;45.334;5.622;2023-09-19T05:47:38;5.43;;;3.75;;
27622;SDS011;15041;45.334;5.622;2023-09-19T05:50:08;7.70;;;4.70;;
27622;SDS011;15041;45.334;5.622;2023-09-19T05:52:36;6.38;;;4.68;;
27622;SDS011;15041;45.334;5.622;2023-09-19T05:55:04;7.25;;;4.85;;
27622;SDS011;15041;45.334;5.622;2023-09-19T05:57:33;14.52;;;5.00;;
27622;SDS011;15041;45.334;5.622;2023-09-19T06:00:00;5.70;;;3.80;;
27622;SDS011;15041;45.334;5.622;2023-09-19T06:02:38;4.35;;;3.95;;
27622;SDS011;15041;45.334;5.622;2023-09-19T06:05:06;7.72;;;4.60;;
27622;SDS011;15041;45.334;5.622;2023-09-19T06:07:35;5.95;;;3.72;;
27622;SDS011;15041;45.334;5.622;2023-09-19T06:10:03;7.43;;;4.50;;
27622;SDS011;15041;45.334;5.622;2023-09-19T06:12:32;5.95;;;4.78;;
27622;SDS011;15041;45.334;5.622;2023-09-19T06:15:03;7.10;;;4.82;;
27622;SDS011;15041;45.334;5.622;2023-09-19T06:17:34;4.53;;;3.97;;
27622;SDS011;15041;45.334;5.622;2023-09-19T06:20:05;8.75;;;4.88;;
27622;SDS011;15041;45.334;5.622;2023-09-19T06:22:38;10.43;;;4.28;;
27622;SDS011;15041;45.334;5.622;2023-09-19T06:25:07;7.78;;;4.63;;
27622;SDS011;15041;45.334;5.622;2023-09-19T06:27:36;8.18;;;4.43;;
27622;SDS011;15041;45.334;5.622;2023-09-19T06:30:05;7.57;;;4.43;;
27622;SDS011;15041;45.334;5.622;2023-09-19T06:32:33;9.48;;;4.57;;
27622;SDS011;15041;45.334;5.622;2023-09-19T06:35:00;6.85;;;4.38;;
27622;SDS011;15041;45.334;5.622;2023-09-19T06:37:29;10.38;;;5.30;;
27622;SDS011;15041;45.334;5.622;2023-09-19T06:39:56;7.65;;;5.30;;
27622;SDS011;15041;45.334;5.622;2023-09-19T06:42:24;8.43;;;5.25;;
27622;SDS011;15041;45.334;5.622;2023-09-19T06:44:51;6.72;;;4.65;;
27622;SDS011;15041;45.334;5.622;2023-09-19T06:47:18;10.25;;;4.68;;
27622;SDS011;15041;45.334;5.622;2023-09-19T06:49:45;8.93;;;5.03;;
27622;SDS011;15041;45.334;5.622;2023-09-19T06:52:13;8.05;;;4.60;;
27622;SDS011;15041;45.334;5.622;2023-09-19T06:54:42;7.32;;;4.80;;
27622;SDS011;15041;45.334;5.622;2023-09-19T06:57:10;6.70;;;4.78;;
27622;SDS011;15041;45.334;5.622;2023-09-19T06:59:37;5.85;;;4.25;;
27622;SDS011;15041;45.334;5.622;2023-09-19T07:02:04;5.22;;;4.28;;
27622;SDS011;15041;45.334;5.622;2023-09-19T07:04:32;9.73;;;5.28;;
27622;SDS011;15041;45.334;5.622;2023-09-19T07:06:59;8.65;;;4.45;;
27622;SDS011;15041;45.334;5.622;2023-09-19T07:09:26;8.13;;;5.00;;
27622;SDS011;15041;45.334;5.622;2023-09-19T07:11:55;8.20;;;5.10;;
27622;SDS011;15041;45.334;5.622;2023-09-19T07:14:22;8.80;;;5.30;;
27622;SDS011;15041;45.334;5.622;2023-09-19T07:16:49;8.00;;;4.78;;
27622;SDS011;15041;45.334;5.622;2023-09-19T07:19:17;8.38;;;5.47;;
27622;SDS011;15041;45.334;5.622;2023-09-19T07:21:44;10.40;;;5.22;;
27622;SDS011;15041;45.334;5.622;2023-09-19T07:24:12;7.93;;;5.00;;
27622;SDS011;15041;45.334;5.622;2023-09-19T07:26:40;9.05;;;4.63;;
27622;SDS011;15041;45.334;5.622;2023-09-19T07:29:08;7.53;;;5.22;;
27622;SDS011;15041;45.334;5.622;2023-09-19T07:31:35;9.18;;;5.20;;
27622;SDS011;15041;45.334;5.622;2023-09-19T07:34:02;6.68;;;4.40;;
27622;SDS011;15041;45.334;5.622;2023-09-19T07:36:30;7.28;;;4.75;;
27622;SDS011;15041;45.334;5.622;2023-09-19T07:38:58;8.02;;;5.35;;
27622;SDS011;15041;45.334;5.622;2023-09-19T07:41:25;9.23;;;6.45;;
27622;SDS011;15041;45.334;5.622;2023-09-19T07:43:55;10.50;;;5.90;;
27622;SDS011;15041;45.334;5.622;2023-09-19T07:46:24;12.07;;;5.65;;
27622;SDS011;15041;45.334;5.622;2023-09-19T07:48:51;11.25;;;5.32;;
27622;SDS011;15041;45.334;5.622;2023-09-19T07:51:19;7.05;;;5.00;;
27622;SDS011;15041;45.334;5.622;2023-09-19T07:53:46;9.15;;;5.32;;
27622;SDS011;15041;45.334;5.622;2023-09-19T07:56:13;9.38;;;5.07;;
27622;SDS011;15041;45.334;5.622;2023-09-19T07:58:41;7.72;;;5.20;;
27622;SDS011;15041;45.334;5.622;2023-09-19T08:01:10;6.75;;;5.22;;
27622;SDS011;15041;45.334;5.622;2023-09-19T08:03:41;10.35;;;5.30;;
27622;SDS011;15041;45.334;5.622;2023-09-19T08:06:09;8.23;;;5.07;;
27622;SDS011;15041;45.334;5.622;2023-09-19T08:08:37;8.45;;;4.55;;
27622;SDS011;15041;45.334;5.622;2023-09-19T08:11:04;6.57;;;5.28;;
27622;SDS011;15041;45.334;5.622;2023-09-19T08:13:37;9.85;;;5.20;;
27622;SDS011;15041;45.334;5.622;2023-09-19T08:16:08;13.15;;;5.28;;
27622;SDS011;15041;45.334;5.622;2023-09-19T08:18:36;5.35;;;4.80;;
27622;SDS011;15041;45.334;5.622;2023-09-19T08:21:06;7.15;;;4.85;;
27622;SDS011;15041;45.334;5.622;2023-09-19T08:23:36;6.80;;;4.68;;
27622;SDS011;15041;45.334;5.622;2023-09-19T08:26:03;8.57;;;4.20;;
27622;SDS011;15041;45.334;5.622;2023-09-19T08:28:33;10.35;;;4.28;;
27622;SDS011;15041;45.334;5.622;2023-09-19T08:31:03;7.57;;;3.80;;
27622;SDS011;15041;45.334;5.622;2023-09-19T08:33:31;7.15;;;3.63;;
27622;SDS011;15041;45.334;5.622;2023-09-19T08:35:59;5.40;;;3.65;;
27622;SDS011;15041;45.334;5.622;2023-09-19T08:38:28;4.55;;;3.45;;
27622;SDS011;15041;45.334;5.622;2023-09-19T08:40:57;7.07;;;3.35;;
27622;SDS011;15041;45.334;5.622;2023-09-19T08:43:25;5.50;;;3.58;;
27622;SDS011;15041;45.334;5.622;2023-09-19T08:45:53;7.45;;;3.40;;
27622;SDS011;15041;45.334;5.622;2023-09-19T08:48:29;7.00;;;4.15;;
27622;SDS011;15041;45.334;5.622;2023-09-19T08:51:00;6.20;;;3.92;;
27622;SDS011;15041;45.334;5.622;2023-09-19T08:53:34;8.68;;;3.67;;
27622;SDS011;15041;45.334;5.622;2023-09-19T08:56:11;5.57;;;3.40;;
27622;SDS011;15041;45.334;5.622;2023-09-19T08:58:41;9.20;;;3.50;;
27622;SDS011;15041;45.334;5.622;2023-09-19T09:01:14;5.47;;;2.70;;
27622;SDS011;15041;45.334;5.622;2023-09-19T09:03:42;6.30;;;2.45;;
27622;SDS011;15041;45.334;5.622;2023-09-19T09:06:13;3.25;;;2.50;;
27622;SDS011;15041;45.334;5.622;2023-09-19T09:08:43;5.40;;;2.22;;
27622;SDS011;15041;45.334;5.622;2023-09-19T09:11:11;3.05;;;1.80;;
27622;SDS011;15041;45.334;5.622;2023-09-19T09:13:39;4.10;;;2.47;;
27622;SDS011;15041;45.334;5.622;2023-09-19T09:16:06;3.05;;;2.10;;
27622;SDS011;15041;45.334;5.622;2023-09-19T09:18:35;3.33;;;2.08;;
27622;SDS011;15041;45.334;5.622;2023-09-19T09:21:02;2.70;;;2.38;;
27622;SDS011;15041;45.334;5.622;2023-09-19T09:23:30;4.75;;;2.20;;
27622;SDS011;15041;45.334;5.622;2023-09-19T09:25:59;3.97;;;2.72;;
27622;SDS011;15041;45.334;5.622;2023-09-19T09:28:30;11.88;;;2.92;;
27622;SDS011;15041;45.334;5.622;2023-09-19T09:31:00;4.78;;;2.53;;
27622;SDS011;15041;45.334;5.622;2023-09-19T09:33:33;3.13;;;2.83;;
27622;SDS011;15041;45.334;5.622;2023-09-19T09:36:01;4.05;;;2.50;;
27622;SDS011;15041;45.334;5.622;2023-09-19T09:38:42;3.08;;;2.30;;
27622;SDS011;15041;45.334;5.622;2023-09-19T09:41:12;3.65;;;2.33;;
27622;SDS011;15041;45.334;5.622;2023-09-19T09:43:52;4.00;;;2.22;;
27622;SDS011;15041;45.334;5.622;2023-09-19T09:46:20;3.95;;;2.10;;
27622;SDS011;15041;45.334;5.622;2023-09-19T09:49:05;3.05;;;2.05;;
27622;SDS011;15041;45.334;5.622;2023-09-19T09:51:51;3.22;;;2.20;;
27622;SDS011;15041;45.334;5.622;2023-09-19T09:54:26;3.78;;;2.13;;
27622;SDS011;15041;45.334;5.622;2023-09-19T09:57:01;2.08;;;1.85;;
27622;SDS011;15041;45.334;5.622;2023-09-19T09:59:49;2.25;;;1.92;;
27622;SDS011;15041;45.334;5.622;2023-09-19T10:02:19;4.68;;;1.92;;
27622;SDS011;15041;45.334;5.622;2023-09-19T10:04:54;4.63;;;1.85;;
27622;SDS011;15041;45.334;5.622;2023-09-19T10:07:35;1.70;;;1.60;;
27622;SDS011;15041;45.334;5.622;2023-09-19T10:10:06;2.45;;;1.92;;
27622;SDS011;15041;45.334;5.622;2023-09-19T10:12:46;4.07;;;1.90;;
27622;SDS011;15041;45.334;5.622;2023-09-19T10:15:14;3.65;;;2.20;;
27622;SDS011;15041;45.334;5.622;2023-09-19T10:17:45;4.38;;;1.70;;
27622;SDS011;15041;45.334;5.622;2023-09-19T10:20:14;3.42;;;1.40;;
27622;SDS011;15041;45.334;5.622;2023-09-19T10:23:04;1.70;;;1.60;;
27622;SDS011;15041;45.334;5.622;2023-09-19T10:25:38;2.05;;;1.95;;
27622;SDS011;15041;45.334;5.622;2023-09-19T10:28:08;1.90;;;1.80;;
27622;SDS011;15041;45.334;5.622;2023-09-19T10:30:37;4.45;;;1.70;;
27622;SDS011;15041;45.334;5.622;2023-09-19T10:33:09;3.17;;;1.77;;
27622;SDS011;15041;45.334;5.622;2023-09-19T10:35:37;3.22;;;1.67;;
27622;SDS011;15041;45.334;5.622;2023-09-19T10:38:07;2.53;;;1.80;;
27622;SDS011;15041;45.334;5.622;2023-09-19T10:40:36;2.85;;;1.50;;
27622;SDS011;15041;45.334;5.622;2023-09-19T10:43:11;5.28;;;1.60;;
27622;SDS011;15041;45.334;5.622;2023-09-19T10:45:40;2.15;;;1.50;;
27622;SDS011;15041;45.334;5.622;2023-09-19T10:48:09;3.13;;;1.40;;
27622;SDS011;15041;45.334;5.622;2023-09-19T10:50:41;1.30;;;1.20;;
27622;SDS011;15041;45.334;5.622;2023-09-19T10:53:11;2.05;;;1.50;;
27622;SDS011;15041;45.334;5.622;2023-09-19T10:55:40;1.25;;;1.20;;
27622;SDS011;15041;45.334;5.622;2023-09-19T10:58:27;2.15;;;1.45;;
27622;SDS011;15041;45.334;5.622;2023-09-19T11:00:55;2.05;;;1.17;;
27622;SDS011;15041;45.334;5.622;2023-09-19T11:03:30;1.27;;;1.20;;
27622;SDS011;15041;45.334;5.622;2023-09-19T11:06:02;2.00;;;1.65;;
27622;SDS011;15041;45.334;5.622;2023-09-19T11:08:51;4.10;;;1.38;;
27622;SDS011;15041;45.334;5.622;2023-09-19T11:11:45;1.38;;;1.25;;
27622;SDS011;15041;45.334;5.622;2023-09-19T11:14:29;1.40;;;1.30;;
27622;SDS011;15041;45.334;5.622;2023-09-19T11:17:30;1.73;;;1.30;;
27622;SDS011;15041;45.334;5.622;2023-09-19T11:20:22;1.20;;;1.20;;
27622;SDS011;15041;45.334;5.622;2023-09-19T11:23:18;1.65;;;1.25;;
27622;SDS011;15041;45.334;5.622;2023-09-19T11:25:51;2.08;;;1.30;;
27622;SDS011;15041;45.334;5.622;2023-09-19T11:28:33;2.33;;;1.75;;
27622;SDS011;15041;45.334;5.622;2023-09-19T11:34:41;2.35;;;1.20;;
27622;SDS011;15041;45.334;5.622;2023-09-19T11:40:33;1.08;;;1.08;;
27622;SDS011;15041;45.334;5.622;2023-09-19T11:43:08;1.20;;;1.10;;
27622;SDS011;15041;45.334;5.622;2023-09-19T11:46:05;1.40;;;1.30;;
27622;SDS011;15041;45.334;5.622;2023-09-19T11:48:38;1.23;;;1.10;;
27622;SDS011;15041;45.334;5.622;2023-09-19T11:51:15;1.23;;;1.20;;
27622;SDS011;15041;45.334;5.622;2023-09-19T11:53:49;3.47;;;1.48;;
27622;SDS011;15041;45.334;5.622;2023-09-19T11:56:18;2.78;;;1.30;;
27622;SDS011;15041;45.334;5.622;2023-09-19T11:58:48;1.50;;;1.40;;
27622;SDS011;15041;45.334;5.622;2023-09-19T12:01:21;1.67;;;1.27;;
27622;SDS011;15041;45.334;5.622;2023-09-19T12:03:52;3.67;;;1.52;;
27622;SDS011;15041;45.334;5.622;2023-09-19T12:06:24;1.58;;;1.20;;
27622;SDS011;15041;45.334;5.622;2023-09-19T12:08:53;1.25;;;1.23;;
27622;SDS011;15041;45.334;5.622;2023-09-19T12:11:21;1.17;;;1.13;;
27622;SDS011;15041;45.334;5.622;2023-09-19T12:13:49;2.60;;;1.13;;
27622;SDS011;15041;45.334;5.622;2023-09-19T12:16:19;1.27;;;1.20;;
27622;SDS011;15041;45.334;5.622;2023-09-19T12:18:48;1.40;;;1.23;;
27622;SDS011;15041;45.334;5.622;2023-09-19T12:21:28;2.42;;;1.00;;
27622;SDS011;15041;45.334;5.622;2023-09-19T12:24:03;1.70;;;1.42;;
27622;SDS011;15041;45.334;5.622;2023-09-19T12:26:37;1.30;;;1.20;;
27622;SDS011;15041;45.334;5.622;2023-09-19T12:29:12;1.33;;;1.23;;
27622;SDS011;15041;45.334;5.622;2023-09-19T12:34:23;1.27;;;1.13;;
27622;SDS011;15041;45.334;5.622;2023-09-19T12:37:07;5.47;;;1.70;;
27622;SDS011;15041;45.334;5.622;2023-09-19T12:39:41;1.30;;;1.20;;
27622;SDS011;15041;45.334;5.622;2023-09-19T12:42:14;1.63;;;1.20;;
27622;SDS011;15041;45.334;5.622;2023-09-19T12:44:42;1.33;;;1.23;;
27622;SDS011;15041;45.334;5.622;2023-09-19T12:47:12;1.20;;;1.10;;
27622;SDS011;15041;45.334;5.622;2023-09-19T12:52:56;1.50;;;1.40;;
27622;SDS011;15041;45.334;5.622;2023-09-19T12:55:26;1.85;;;1.23;;
27622;SDS011;15041;45.334;5.622;2023-09-19T12:58:12;1.45;;;1.35;;
27622;SDS011;15041;45.334;5.622;2023-09-19T13:00:41;1.58;;;1.30;;
27622;SDS011;15041;45.334;5.622;2023-09-19T13:03:13;1.20;;;1.10;;
27622;SDS011;15041;45.334;5.622;2023-09-19T13:05:53;5.20;;;1.20;;
27622;SDS011;15041;45.334;5.622;2023-09-19T13:08:28;1.55;;;1.45;;
27622;SDS011;15041;45.334;5.622;2023-09-19T13:11:04;6.82;;;1.52;;
27622;SDS011;15041;45.334;5.622;2023-09-19T13:13:35;3.38;;;1.50;;
27622;SDS011;15041;45.334;5.622;2023-09-19T13:16:04;2.53;;;1.33;;
27622;SDS011;15041;45.334;5.622;2023-09-19T13:18:45;1.88;;;1.45;;
27622;SDS011;15041;45.334;5.622;2023-09-19T13:21:16;1.25;;;1.17;;
27622;SDS011;15041;45.334;5.622;2023-09-19T13:23:53;1.73;;;1.55;;
27622;SDS011;15041;45.334;5.622;2023-09-19T13:26:24;2.88;;;1.15;;
27622;SDS011;15041;45.334;5.622;2023-09-19T13:28:53;1.52;;;1.30;;
27622;SDS011;15041;45.334;5.622;2023-09-19T13:31:20;1.33;;;1.23;;
27622;SDS011;15041;45.334;5.622;2023-09-19T13:33:49;1.30;;;1.20;;
27622;SDS011;15041;45.334;5.622;2023-09-19T13:36:17;1.80;;;1.30;;
27622;SDS011;15041;45.334;5.622;2023-09-19T13:38:44;1.27;;;1.17;;
27622;SDS011;15041;45.334;5.622;2023-09-19T13:41:17;2.03;;;1.60;;
27622;SDS011;15041;45.334;5.622;2023-09-19T13:43:44;2.10;;;1.30;;
27622;SDS011;15041;45.334;5.622;2023-09-19T13:46:14;1.45;;;1.33;;
27622;SDS011;15041;45.334;5.622;2023-09-19T13:48:43;2.65;;;1.55;;
27622;SDS011;15041;45.334;5.622;2023-09-19T13:51:10;1.45;;;1.40;;
27622;SDS011;15041;45.334;5.622;2023-09-19T13:53:37;1.73;;;1.63;;
27622;SDS011;15041;45.334;5.622;2023-09-19T13:56:05;1.60;;;1.45;;
27622;SDS011;15041;45.334;5.622;2023-09-19T13:58:34;2.42;;;1.33;;
27622;SDS011;15041;45.334;5.622;2023-09-19T14:01:01;1.83;;;1.25;;
27622;SDS011;15041;45.334;5.622;2023-09-19T14:03:28;1.40;;;1.30;;
27622;SDS011;15041;45.334;5.622;2023-09-19T14:05:56;2.25;;;1.52;;
27622;SDS011;15041;45.334;5.622;2023-09-19T14:08:24;1.85;;;1.30;;
27622;SDS011;15041;45.334;5.622;2023-09-19T14:10:51;5.20;;;2.80;;
27622;SDS011;15041;45.334;5.622;2023-09-19T14:13:18;1.83;;;1.65;;
27622;SDS011;15041;45.334;5.622;2023-09-19T14:15:47;3.55;;;1.40;;
27622;SDS011;15041;45.334;5.622;2023-09-19T14:18:14;1.63;;;1.52;;
27622;SDS011;15041;45.334;5.622;2023-09-19T14:20:41;1.60;;;1.50;;
27622;SDS011;15041;45.334;5.622;2023-09-19T14:23:09;3.03;;;1.52;;
27622;SDS011;15041;45.334;5.622;2023-09-19T14:25:37;1.33;;;1.30;;
27622;SDS011;15041;45.334;5.622;2023-09-19T14:28:04;1.80;;;1.40;;
27622;SDS011;15041;45.334;5.622;2023-09-19T14:30:34;1.67;;;1.50;;
27622;SDS011;15041;45.334;5.622;2023-09-19T14:33:04;4.20;;;1.38;;
27622;SDS011;15041;45.334;5.622;2023-09-19T14:35:32;1.50;;;1.40;;
27622;SDS011;15041;45.334;5.622;2023-09-19T14:38:01;1.38;;;1.30;;
27622;SDS011;15041;45.334;5.622;2023-09-19T14:40:28;1.30;;;1.25;;
27622;SDS011;15041;45.334;5.622;2023-09-19T14:42:56;1.30;;;1.30;;
27622;SDS011;15041;45.334;5.622;2023-09-19T14:45:23;1.60;;;1.50;;
27622;SDS011;15041;45.334;5.622;2023-09-19T14:47:51;1.50;;;1.40;;
27622;SDS011;15041;45.334;5.622;2023-09-19T14:50:21;1.73;;;1.30;;
27622;SDS011;15041;45.334;5.622;2023-09-19T14:52:49;1.38;;;1.27;;
27622;SDS011;15041;45.334;5.622;2023-09-19T14:55:17;1.40;;;1.30;;
27622;SDS011;15041;45.334;5.622;2023-09-19T14:57:48;1.27;;;1.27;;
27622;SDS011;15041;45.334;5.622;2023-09-19T15:00:16;1.40;;;1.30;;
27622;SDS011;15041;45.334;5.622;2023-09-19T15:02:46;2.10;;;1.27;;
27622;SDS011;15041;45.334;5.622;2023-09-19T15:05:15;2.33;;;1.42;;
27622;SDS011;15041;45.334;5.622;2023-09-19T15:07:44;1.35;;;1.27;;
27622;SDS011;15041;45.334;5.622;2023-09-19T15:10:11;2.30;;;1.42;;
27622;SDS011;15041;45.334;5.622;2023-09-19T15:12:38;1.77;;;1.63;;
27622;SDS011;15041;45.334;5.622;2023-09-19T15:15:06;1.85;;;1.35;;
27622;SDS011;15041;45.334;5.622;2023-09-19T15:17:34;1.42;;;1.33;;
27622;SDS011;15041;45.334;5.622;2023-09-19T15:20:02;3.30;;;1.70;;